»·PEaware :: ASA258 KSFO-KSBP

ASA258 :: KSFO-KSBP

FLIGHT INFORMATION

Flight Status: Arrived
Operator:
Alaska Airlines
More flights by this operator :: More flights under this callsign
Pilot: Brad M. (22842)
Aircraft: AIRBUS A320
(A320)
More flights by this aircraft type
Origin: KSFO San Francisco Intl
United States
Destination: KSBP San Luis Co Regl
United States
More flights between these airports :: More routes between these airports
Route: +OFFSH1 MCKEY MQO
File this flight plan on PilotEdge
Remarks:
Altitude:
(Current/Filed)
26,000ft
Speed:
(Current/Filed)
400kts
Departed: 07-Feb-19 03:56 PM
Arrived: 07-Feb-19 04:34 PM
Distance/Time
Traveled:
166nm/0:38
Distance/Time
To Go:
Arrived

Flight Plot

Page will automatically refresh every two minutes.

Flight plan parsing failed; only flown route is shown


Map Options




Map Legend


Flown Route
Filed Route
Departure Airport
Arrival Airport
Navaid (VOR, NDB)
Fix

Horizontal Profiles

Position Reports

Time Latitude Longitude Heading Altitude Ground
Speed
07-Feb-19 15:01 37.616759 -122.381705 22 21ft 0kts
07-Feb-19 15:02 37.616759 -122.381705 22 21ft 0kts
07-Feb-19 15:03 37.616759 -122.381705 22 21ft 0kts
07-Feb-19 15:04 37.616759 -122.381705 22 21ft 0kts
07-Feb-19 15:05 37.616759 -122.381705 22 21ft 0kts
07-Feb-19 15:06 37.616759 -122.381705 22 21ft 0kts
07-Feb-19 15:07 37.616759 -122.381705 22 21ft 0kts
07-Feb-19 15:08 37.616759 -122.381705 22 21ft 0kts
07-Feb-19 15:09 37.616759 -122.381705 22 21ft 0kts
07-Feb-19 15:10 37.616759 -122.381705 22 21ft 0kts
07-Feb-19 15:11 37.616759 -122.381705 22 21ft 0kts
07-Feb-19 15:12 37.616759 -122.381705 22 21ft 0kts
07-Feb-19 15:13 37.616759 -122.381705 22 21ft 0kts
07-Feb-19 15:14 37.616759 -122.381705 22 21ft 0kts
07-Feb-19 15:15 37.616759 -122.381705 22 21ft 0kts
07-Feb-19 15:16 37.616759 -122.381705 22 21ft 0kts
07-Feb-19 15:17 37.616759 -122.381705 22 21ft 0kts
07-Feb-19 15:18 37.616759 -122.381705 22 21ft 0kts
07-Feb-19 15:19 37.616759 -122.381705 22 21ft 0kts
07-Feb-19 15:20 37.616759 -122.381705 22 21ft 0kts
07-Feb-19 15:21 37.616759 -122.381705 22 21ft 0kts
07-Feb-19 15:22 37.616759 -122.381705 22 21ft 0kts
07-Feb-19 15:23 37.616759 -122.381705 22 21ft 0kts
07-Feb-19 15:24 37.616759 -122.381705 22 21ft 0kts
07-Feb-19 15:25 37.616759 -122.381705 22 21ft 0kts
07-Feb-19 15:29 37.616759 -122.381705 22 21ft 0kts
07-Feb-19 15:31 37.616759 -122.381705 22 21ft 0kts
07-Feb-19 15:32 37.616759 -122.381705 22 21ft 0kts
07-Feb-19 15:33 37.616759 -122.381705 22 21ft 0kts
07-Feb-19 15:34 37.616759 -122.381705 22 21ft 0kts
07-Feb-19 15:35 37.616759 -122.381705 22 21ft 0kts
07-Feb-19 15:36 37.616759 -122.381705 22 21ft 0kts
07-Feb-19 15:37 37.616759 -122.381705 22 21ft 0kts
07-Feb-19 15:38 37.616759 -122.381705 22 21ft 0kts
07-Feb-19 15:39 37.616759 -122.381705 22 21ft 0kts
07-Feb-19 15:40 37.616759 -122.381705 22 21ft 0kts
07-Feb-19 15:41 37.616759 -122.381705 22 21ft 0kts
07-Feb-19 15:42 37.616759 -122.381705 22 21ft 0kts
07-Feb-19 15:43 37.616759 -122.381705 22 21ft 0kts
07-Feb-19 15:44 37.616759 -122.381705 22 21ft 0kts
07-Feb-19 15:45 37.616758 -122.381705 22 21ft 0kts
07-Feb-19 15:46 37.616483 -122.381846 22 21ft 2kts
07-Feb-19 15:47 37.616193 -122.382339 114 21ft 0kts
07-Feb-19 15:48 37.616229 -122.382418 118 21ft 0kts
07-Feb-19 15:48 37.616229 -122.382418 118 21ft 0kts
07-Feb-19 15:50 37.615802 -122.381351 118 21ft 0kts
07-Feb-19 15:51 37.615461 -122.380689 143 21ft 7kts
07-Feb-19 15:51 37.613449 -122.381741 207 21ft 14kts
07-Feb-19 15:52 37.609736 -122.384262 183 21ft 12kts
07-Feb-19 15:54 37.609091 -122.383447 124 21ft 0kts
07-Feb-19 15:54 37.609410 -122.381931 27 21ft 17kts
07-Feb-19 15:55 37.642977 -122.362879 4 1402ft 181kts
07-Feb-19 15:56 37.698669 -122.364806 333 3911ft 237kts
07-Feb-19 15:58 37.693682 -122.453377 218 7337ft 279kts
07-Feb-19 15:58 37.641588 -122.503589 217 10019ft 289kts
07-Feb-19 15:59 37.571979 -122.570410 217 11724ft 349kts
07-Feb-19 16:00 37.489950 -122.649172 217 13346ft 384kts
07-Feb-19 16:01 37.391388 -122.678087 168 15326ft 396kts
07-Feb-19 16:02 37.282205 -122.650441 168 17197ft 406kts
07-Feb-19 16:03 37.170047 -122.622796 168 18880ft 417kts
07-Feb-19 16:04 37.055366 -122.594711 168 20406ft 426kts
07-Feb-19 16:05 36.937338 -122.565661 167 21800ft 435kts
07-Feb-19 16:06 36.823079 -122.535769 167 23014ft 443kts
07-Feb-19 16:07 36.701195 -122.504142 167 24181ft 451kts
07-Feb-19 16:08 36.576779 -122.471983 167 25231ft 457kts
07-Feb-19 16:09 36.453096 -122.435806 157 25640ft 461kts
07-Feb-19 16:10 36.355766 -122.335323 130 26279ft 464kts
07-Feb-19 16:11 36.271951 -122.212604 130 26284ft 466kts
07-Feb-19 16:12 36.188217 -122.090896 130 26283ft 466kts
07-Feb-19 16:13 36.104115 -121.969103 130 26282ft 466kts
07-Feb-19 16:14 36.020247 -121.848093 130 26282ft 466kts
07-Feb-19 16:15 35.935318 -121.725999 130 26281ft 466kts
07-Feb-19 16:16 35.851807 -121.606370 130 26282ft 466kts
07-Feb-19 16:17 35.766887 -121.485156 130 26285ft 467kts
07-Feb-19 16:18 35.684975 -121.368547 130 25534ft 430kts
07-Feb-19 16:19 35.608660 -121.260364 131 24053ft 412kts
07-Feb-19 16:20 35.533521 -121.154232 131 22818ft 408kts
07-Feb-19 16:21 35.459396 -121.049787 131 21304ft 404kts
07-Feb-19 16:22 35.386191 -120.946952 131 17119ft 394kts
07-Feb-19 16:23 35.316149 -120.848793 131 13056ft 372kts
07-Feb-19 16:24 35.251458 -120.758897 132 10438ft 318kts
07-Feb-19 16:25 35.195229 -120.686717 133 9113ft 283kts
07-Feb-19 16:26 35.141339 -120.617248 133 7381ft 277kts
07-Feb-19 16:27 35.089364 -120.549448 133 5112ft 269kts
07-Feb-19 16:28 35.094814 -120.477129 30 4037ft 237kts
07-Feb-19 16:29 35.150234 -120.501841 311 3079ft 234kts
07-Feb-19 16:30 35.189420 -120.556904 305 1703ft 182kts
07-Feb-19 16:31 35.213691 -120.598972 301 1077ft 142kts
07-Feb-19 16:32 35.235804 -120.638306 302 186ft 128kts
07-Feb-19 16:33 35.240891 -120.645324 125 185ft 20kts
07-Feb-19 16:34 35.237898 -120.640185 117 185ft 13kts
07-Feb-19 16:35 35.237592 -120.637465 12 185ft 6kts
07-Feb-19 16:36 35.238004 -120.637481 359 185ft 0kts
07-Feb-19 16:37 35.238004 -120.637481 359 185ft 0kts
07-Feb-19 16:38 35.238004 -120.637481 359 185ft 0kts
07-Feb-19 16:39 35.238004 -120.637481 359 185ft 0kts
07-Feb-19 16:40 35.238004 -120.637481 359 185ft 0kts
07-Feb-19 16:41 35.238004 -120.637481 359 185ft 0kts

Navigation Log

Ident Type
Flight plan parsing failed, navigation log unavailable